sensor_id;sensor_type;location;lat;lon;timestamp;P1;durP1;ratioP1;P2;durP2;ratioP2
773;SDS011;370;48.810;9.150;2024-01-30T00:00:58;3.63;;;1.38;;
773;SDS011;370;48.810;9.150;2024-01-30T00:03:27;3.05;;;0.80;;
773;SDS011;370;48.810;9.150;2024-01-30T00:05:55;2.88;;;1.20;;
773;SDS011;370;48.810;9.150;2024-01-30T00:08:25;8.35;;;1.42;;
773;SDS011;370;48.810;9.150;2024-01-30T00:13:58;1.15;;;1.08;;
773;SDS011;370;48.810;9.150;2024-01-30T00:16:37;2.67;;;1.50;;
773;SDS011;370;48.810;9.150;2024-01-30T00:19:07;1.83;;;1.30;;
773;SDS011;370;48.810;9.150;2024-01-30T00:22:08;10.15;;;1.63;;
773;SDS011;370;48.810;9.150;2024-01-30T00:27:44;10.30;;;3.00;;
773;SDS011;370;48.810;9.150;2024-01-30T00:30:11;3.80;;;1.33;;
773;SDS011;370;48.810;9.150;2024-01-30T00:35:51;3.92;;;2.67;;
773;SDS011;370;48.810;9.150;2024-01-30T00:38:41;15.32;;;1.88;;
773;SDS011;370;48.810;9.150;2024-01-30T00:47:52;2.88;;;1.77;;
773;SDS011;370;48.810;9.150;2024-01-30T00:50:44;3.60;;;2.20;;
773;SDS011;370;48.810;9.150;2024-01-30T00:53:11;2.05;;;1.25;;
773;SDS011;370;48.810;9.150;2024-01-30T00:55:55;3.92;;;2.58;;
773;SDS011;370;48.810;9.150;2024-01-30T00:58:40;1.42;;;0.73;;
773;SDS011;370;48.810;9.150;2024-01-30T01:01:34;1.63;;;1.33;;
773;SDS011;370;48.810;9.150;2024-01-30T01:07:42;2.85;;;1.80;;
773;SDS011;370;48.810;9.150;2024-01-30T01:13:41;3.25;;;1.15;;
773;SDS011;370;48.810;9.150;2024-01-30T01:16:08;3.83;;;2.13;;
773;SDS011;370;48.810;9.150;2024-01-30T01:18:48;3.50;;;1.17;;
773;SDS011;370;48.810;9.150;2024-01-30T01:21:52;7.47;;;1.95;;
773;SDS011;370;48.810;9.150;2024-01-30T01:25:10;0.70;;;0.60;;
773;SDS011;370;48.810;9.150;2024-01-30T01:28:07;3.10;;;1.50;;
773;SDS011;370;48.810;9.150;2024-01-30T01:30:52;2.33;;;1.20;;
773;SDS011;370;48.810;9.150;2024-01-30T01:33:24;1.48;;;1.25;;
773;SDS011;370;48.810;9.150;2024-01-30T01:36:08;0.98;;;0.90;;
773;SDS011;370;48.810;9.150;2024-01-30T01:41:47;2.83;;;1.48;;
773;SDS011;370;48.810;9.150;2024-01-30T01:44:55;1.63;;;1.10;;
773;SDS011;370;48.810;9.150;2024-01-30T01:47:32;2.60;;;1.70;;
773;SDS011;370;48.810;9.150;2024-01-30T01:50:24;1.38;;;1.33;;
773;SDS011;370;48.810;9.150;2024-01-30T01:53:04;2.47;;;1.40;;
773;SDS011;370;48.810;9.150;2024-01-30T01:56:04;1.95;;;0.88;;
773;SDS011;370;48.810;9.150;2024-01-30T02:01:40;3.10;;;1.40;;
773;SDS011;370;48.810;9.150;2024-01-30T02:04:10;6.50;;;1.23;;
773;SDS011;370;48.810;9.150;2024-01-30T02:09:25;2.45;;;1.45;;
773;SDS011;370;48.810;9.150;2024-01-30T02:11:52;2.13;;;1.67;;
773;SDS011;370;48.810;9.150;2024-01-30T02:14:24;6.22;;;1.40;;
773;SDS011;370;48.810;9.150;2024-01-30T02:16:52;2.33;;;2.13;;
773;SDS011;370;48.810;9.150;2024-01-30T02:19:19;2.80;;;2.38;;
773;SDS011;370;48.810;9.150;2024-01-30T02:21:50;3.17;;;1.60;;
773;SDS011;370;48.810;9.150;2024-01-30T02:24:18;2.10;;;1.23;;
773;SDS011;370;48.810;9.150;2024-01-30T02:26:46;3.58;;;1.70;;
773;SDS011;370;48.810;9.150;2024-01-30T02:29:13;5.32;;;2.97;;
773;SDS011;370;48.810;9.150;2024-01-30T02:31:39;3.72;;;1.48;;
773;SDS011;370;48.810;9.150;2024-01-30T02:34:07;2.42;;;1.00;;
773;SDS011;370;48.810;9.150;2024-01-30T02:36:35;2.83;;;1.73;;
773;SDS011;370;48.810;9.150;2024-01-30T02:39:04;2.05;;;1.42;;
773;SDS011;370;48.810;9.150;2024-01-30T02:41:31;3.47;;;1.73;;
773;SDS011;370;48.810;9.150;2024-01-30T02:43:58;4.20;;;1.65;;
773;SDS011;370;48.810;9.150;2024-01-30T02:46:29;9.57;;;2.42;;
773;SDS011;370;48.810;9.150;2024-01-30T02:52:26;2.13;;;1.40;;
773;SDS011;370;48.810;9.150;2024-01-30T02:55:34;2.20;;;1.30;;
773;SDS011;370;48.810;9.150;2024-01-30T02:58:09;14.85;;;1.23;;
773;SDS011;370;48.810;9.150;2024-01-30T03:00:54;3.10;;;1.95;;
773;SDS011;370;48.810;9.150;2024-01-30T03:03:21;1.35;;;1.15;;
773;SDS011;370;48.810;9.150;2024-01-30T03:05:47;2.03;;;1.17;;
773;SDS011;370;48.810;9.150;2024-01-30T03:08:14;2.97;;;1.33;;
773;SDS011;370;48.810;9.150;2024-01-30T03:10:42;4.25;;;1.10;;
773;SDS011;370;48.810;9.150;2024-01-30T03:13:09;3.28;;;1.98;;
773;SDS011;370;48.810;9.150;2024-01-30T03:15:36;3.08;;;1.15;;
773;SDS011;370;48.810;9.150;2024-01-30T03:18:03;3.92;;;1.60;;
773;SDS011;370;48.810;9.150;2024-01-30T03:20:30;3.25;;;1.13;;
773;SDS011;370;48.810;9.150;2024-01-30T03:22:59;1.52;;;0.95;;
773;SDS011;370;48.810;9.150;2024-01-30T03:25:26;1.05;;;0.88;;
773;SDS011;370;48.810;9.150;2024-01-30T03:27:54;1.58;;;1.55;;
773;SDS011;370;48.810;9.150;2024-01-30T03:30:21;3.00;;;1.13;;
773;SDS011;370;48.810;9.150;2024-01-30T03:32:47;1.60;;;0.90;;
773;SDS011;370;48.810;9.150;2024-01-30T03:35:14;9.80;;;2.17;;
773;SDS011;370;48.810;9.150;2024-01-30T03:37:41;1.55;;;1.25;;
773;SDS011;370;48.810;9.150;2024-01-30T03:40:08;1.52;;;0.80;;
773;SDS011;370;48.810;9.150;2024-01-30T03:42:35;10.13;;;2.10;;
773;SDS011;370;48.810;9.150;2024-01-30T03:45:04;1.38;;;1.05;;
773;SDS011;370;48.810;9.150;2024-01-30T03:47:31;3.65;;;1.02;;
773;SDS011;370;48.810;9.150;2024-01-30T03:49:58;1.05;;;0.95;;
773;SDS011;370;48.810;9.150;2024-01-30T03:52:24;2.83;;;1.88;;
773;SDS011;370;48.810;9.150;2024-01-30T03:54:52;2.90;;;0.93;;
773;SDS011;370;48.810;9.150;2024-01-30T03:57:19;4.75;;;2.17;;
773;SDS011;370;48.810;9.150;2024-01-30T03:59:46;2.15;;;1.85;;
773;SDS011;370;48.810;9.150;2024-01-30T04:02:16;0.93;;;0.82;;
773;SDS011;370;48.810;9.150;2024-01-30T04:04:44;2.33;;;1.35;;
773;SDS011;370;48.810;9.150;2024-01-30T04:07:11;0.93;;;0.75;;
773;SDS011;370;48.810;9.150;2024-01-30T04:09:38;0.90;;;0.80;;
773;SDS011;370;48.810;9.150;2024-01-30T04:12:05;1.45;;;0.60;;
773;SDS011;370;48.810;9.150;2024-01-30T04:14:32;2.45;;;1.48;;
773;SDS011;370;48.810;9.150;2024-01-30T04:17:00;1.92;;;1.15;;
773;SDS011;370;48.810;9.150;2024-01-30T04:19:28;2.25;;;1.23;;
773;SDS011;370;48.810;9.150;2024-01-30T04:21:55;5.28;;;0.80;;
773;SDS011;370;48.810;9.150;2024-01-30T04:24:22;2.92;;;2.10;;
773;SDS011;370;48.810;9.150;2024-01-30T04:26:49;1.20;;;1.10;;
773;SDS011;370;48.810;9.150;2024-01-30T04:29:16;1.25;;;0.90;;
773;SDS011;370;48.810;9.150;2024-01-30T04:31:42;1.58;;;0.80;;
773;SDS011;370;48.810;9.150;2024-01-30T04:34:08;1.50;;;1.00;;
773;SDS011;370;48.810;9.150;2024-01-30T04:36:37;0.90;;;0.85;;
773;SDS011;370;48.810;9.150;2024-01-30T04:39:03;3.40;;;1.75;;
773;SDS011;370;48.810;9.150;2024-01-30T04:41:30;2.63;;;0.80;;
773;SDS011;370;48.810;9.150;2024-01-30T04:43:57;4.13;;;1.63;;
773;SDS011;370;48.810;9.150;2024-01-30T04:46:24;1.48;;;0.68;;
773;SDS011;370;48.810;9.150;2024-01-30T04:48:50;1.23;;;0.57;;
773;SDS011;370;48.810;9.150;2024-01-30T04:51:17;14.70;;;1.92;;
773;SDS011;370;48.810;9.150;2024-01-30T04:53:45;3.05;;;1.30;;
773;SDS011;370;48.810;9.150;2024-01-30T04:56:12;5.07;;;1.88;;
773;SDS011;370;48.810;9.150;2024-01-30T04:58:39;2.80;;;2.10;;
773;SDS011;370;48.810;9.150;2024-01-30T05:01:06;2.53;;;1.70;;
773;SDS011;370;48.810;9.150;2024-01-30T05:03:33;1.80;;;0.98;;
773;SDS011;370;48.810;9.150;2024-01-30T05:06:00;1.85;;;0.82;;
773;SDS011;370;48.810;9.150;2024-01-30T05:08:27;2.90;;;1.42;;
773;SDS011;370;48.810;9.150;2024-01-30T05:10:57;5.22;;;3.42;;
773;SDS011;370;48.810;9.150;2024-01-30T05:13:26;1.50;;;1.40;;
773;SDS011;370;48.810;9.150;2024-01-30T05:15:53;5.15;;;3.55;;
773;SDS011;370;48.810;9.150;2024-01-30T05:18:20;1.20;;;0.73;;
773;SDS011;370;48.810;9.150;2024-01-30T05:20:47;3.25;;;1.45;;
773;SDS011;370;48.810;9.150;2024-01-30T05:23:14;1.80;;;1.70;;
773;SDS011;370;48.810;9.150;2024-01-30T05:25:40;5.05;;;1.15;;
773;SDS011;370;48.810;9.150;2024-01-30T05:28:09;2.05;;;1.00;;
773;SDS011;370;48.810;9.150;2024-01-30T05:30:36;3.20;;;1.42;;
773;SDS011;370;48.810;9.150;2024-01-30T05:33:03;3.97;;;2.33;;
773;SDS011;370;48.810;9.150;2024-01-30T05:35:30;0.77;;;0.70;;
773;SDS011;370;48.810;9.150;2024-01-30T05:37:57;3.53;;;1.35;;
773;SDS011;370;48.810;9.150;2024-01-30T05:40:24;2.45;;;1.95;;
773;SDS011;370;48.810;9.150;2024-01-30T05:42:50;2.22;;;1.50;;
773;SDS011;370;48.810;9.150;2024-01-30T05:45:18;5.47;;;0.85;;
773;SDS011;370;48.810;9.150;2024-01-30T05:47:45;1.15;;;1.00;;
773;SDS011;370;48.810;9.150;2024-01-30T05:50:12;1.70;;;1.05;;
773;SDS011;370;48.810;9.150;2024-01-30T05:52:39;5.93;;;1.88;;
773;SDS011;370;48.810;9.150;2024-01-30T05:55:06;11.57;;;1.70;;
773;SDS011;370;48.810;9.150;2024-01-30T05:57:32;1.55;;;1.45;;
773;SDS011;370;48.810;9.150;2024-01-30T05:59:59;2.60;;;1.38;;
773;SDS011;370;48.810;9.150;2024-01-30T06:02:27;2.50;;;1.65;;
773;SDS011;370;48.810;9.150;2024-01-30T06:04:54;1.30;;;1.17;;
773;SDS011;370;48.810;9.150;2024-01-30T06:07:20;1.70;;;1.13;;
773;SDS011;370;48.810;9.150;2024-01-30T06:09:47;1.77;;;1.17;;
773;SDS011;370;48.810;9.150;2024-01-30T06:12:14;1.60;;;1.50;;
773;SDS011;370;48.810;9.150;2024-01-30T06:14:41;2.38;;;2.17;;
773;SDS011;370;48.810;9.150;2024-01-30T06:17:08;2.05;;;1.65;;
773;SDS011;370;48.810;9.150;2024-01-30T06:19:38;3.95;;;2.15;;
773;SDS011;370;48.810;9.150;2024-01-30T06:22:04;1.15;;;0.70;;
773;SDS011;370;48.810;9.150;2024-01-30T06:24:31;1.15;;;0.90;;
773;SDS011;370;48.810;9.150;2024-01-30T06:26:59;0.70;;;0.70;;
773;SDS011;370;48.810;9.150;2024-01-30T06:29:26;3.45;;;1.40;;
773;SDS011;370;48.810;9.150;2024-01-30T06:31:52;4.45;;;2.13;;
773;SDS011;370;48.810;9.150;2024-01-30T06:34:19;1.85;;;1.25;;
773;SDS011;370;48.810;9.150;2024-01-30T06:36:47;2.13;;;1.48;;
773;SDS011;370;48.810;9.150;2024-01-30T06:39:14;2.42;;;1.42;;
773;SDS011;370;48.810;9.150;2024-01-30T06:41:41;1.20;;;1.10;;
773;SDS011;370;48.810;9.150;2024-01-30T06:44:37;0.90;;;0.80;;
773;SDS011;370;48.810;9.150;2024-01-30T06:47:08;1.30;;;1.00;;
773;SDS011;370;48.810;9.150;2024-01-30T06:49:35;0.93;;;0.90;;
773;SDS011;370;48.810;9.150;2024-01-30T06:52:06;0.98;;;0.90;;
773;SDS011;370;48.810;9.150;2024-01-30T06:54:33;1.15;;;1.10;;
773;SDS011;370;48.810;9.150;2024-01-30T06:57:00;3.72;;;1.00;;
773;SDS011;370;48.810;9.150;2024-01-30T06:59:26;1.30;;;0.57;;
773;SDS011;370;48.810;9.150;2024-01-30T07:01:53;3.35;;;1.10;;
773;SDS011;370;48.810;9.150;2024-01-30T07:04:20;1.08;;;1.00;;
773;SDS011;370;48.810;9.150;2024-01-30T07:06:47;1.25;;;1.00;;
773;SDS011;370;48.810;9.150;2024-01-30T07:09:15;0.80;;;0.68;;
773;SDS011;370;48.810;9.150;2024-01-30T07:11:42;4.70;;;2.05;;
773;SDS011;370;48.810;9.150;2024-01-30T07:14:09;1.60;;;0.80;;
773;SDS011;370;48.810;9.150;2024-01-30T07:16:35;3.85;;;1.73;;
773;SDS011;370;48.810;9.150;2024-01-30T07:19:02;0.80;;;0.70;;
773;SDS011;370;48.810;9.150;2024-01-30T07:21:29;1.92;;;1.90;;
773;SDS011;370;48.810;9.150;2024-01-30T07:23:55;0.93;;;0.88;;
773;SDS011;370;48.810;9.150;2024-01-30T07:26:23;0.85;;;0.73;;
773;SDS011;370;48.810;9.150;2024-01-30T07:28:50;1.98;;;1.17;;
773;SDS011;370;48.810;9.150;2024-01-30T07:31:17;6.55;;;0.82;;
773;SDS011;370;48.810;9.150;2024-01-30T07:33:45;1.63;;;1.15;;
773;SDS011;370;48.810;9.150;2024-01-30T07:36:12;0.77;;;0.75;;
773;SDS011;370;48.810;9.150;2024-01-30T07:38:39;4.10;;;1.70;;
773;SDS011;370;48.810;9.150;2024-01-30T07:41:06;2.65;;;1.90;;
773;SDS011;370;48.810;9.150;2024-01-30T07:43:34;2.47;;;1.13;;
773;SDS011;370;48.810;9.150;2024-01-30T07:46:01;3.00;;;1.48;;
773;SDS011;370;48.810;9.150;2024-01-30T07:48:28;5.90;;;1.77;;
773;SDS011;370;48.810;9.150;2024-01-30T07:50:54;3.58;;;1.60;;
773;SDS011;370;48.810;9.150;2024-01-30T07:53:21;5.07;;;1.27;;
773;SDS011;370;48.810;9.150;2024-01-30T07:55:48;2.85;;;1.52;;
773;SDS011;370;48.810;9.150;2024-01-30T07:58:14;5.18;;;1.70;;
773;SDS011;370;48.810;9.150;2024-01-30T08:00:42;2.50;;;1.73;;
773;SDS011;370;48.810;9.150;2024-01-30T08:03:09;1.52;;;1.45;;
773;SDS011;370;48.810;9.150;2024-01-30T08:05:36;2.55;;;1.58;;
773;SDS011;370;48.810;9.150;2024-01-30T08:08:04;1.80;;;1.40;;
773;SDS011;370;48.810;9.150;2024-01-30T08:10:31;3.35;;;1.70;;
773;SDS011;370;48.810;9.150;2024-01-30T08:12:58;3.58;;;2.20;;
773;SDS011;370;48.810;9.150;2024-01-30T08:15:25;0.98;;;0.93;;
773;SDS011;370;48.810;9.150;2024-01-30T08:17:53;3.60;;;1.88;;
773;SDS011;370;48.810;9.150;2024-01-30T08:20:22;1.70;;;1.65;;
773;SDS011;370;48.810;9.150;2024-01-30T08:22:49;8.93;;;2.67;;
773;SDS011;370;48.810;9.150;2024-01-30T08:25:16;6.43;;;2.13;;
773;SDS011;370;48.810;9.150;2024-01-30T08:27:43;6.40;;;2.05;;
773;SDS011;370;48.810;9.150;2024-01-30T08:30:10;7.10;;;2.50;;
773;SDS011;370;48.810;9.150;2024-01-30T08:32:37;18.05;;;4.72;;
773;SDS011;370;48.810;9.150;2024-01-30T08:35:05;4.65;;;2.90;;
773;SDS011;370;48.810;9.150;2024-01-30T08:37:33;5.10;;;2.10;;
773;SDS011;370;48.810;9.150;2024-01-30T08:40:00;2.92;;;2.55;;
773;SDS011;370;48.810;9.150;2024-01-30T08:42:29;5.95;;;2.92;;
773;SDS011;370;48.810;9.150;2024-01-30T08:44:57;3.47;;;2.58;;
773;SDS011;370;48.810;9.150;2024-01-30T08:47:24;8.77;;;3.70;;
773;SDS011;370;48.810;9.150;2024-01-30T08:49:51;11.05;;;3.10;;
773;SDS011;370;48.810;9.150;2024-01-30T08:52:19;7.63;;;3.65;;
773;SDS011;370;48.810;9.150;2024-01-30T08:54:46;5.30;;;3.47;;
773;SDS011;370;48.810;9.150;2024-01-30T08:57:12;3.95;;;2.55;;
773;SDS011;370;48.810;9.150;2024-01-30T08:59:39;17.52;;;5.38;;
773;SDS011;370;48.810;9.150;2024-01-30T09:02:06;6.30;;;3.63;;
773;SDS011;370;48.810;9.150;2024-01-30T09:04:34;6.47;;;4.25;;
773;SDS011;370;48.810;9.150;2024-01-30T09:07:01;18.30;;;5.28;;
773;SDS011;370;48.810;9.150;2024-01-30T09:09:31;13.07;;;4.05;;
773;SDS011;370;48.810;9.150;2024-01-30T09:11:58;14.75;;;5.30;;
773;SDS011;370;48.810;9.150;2024-01-30T09:14:29;14.75;;;5.38;;
773;SDS011;370;48.810;9.150;2024-01-30T09:16:56;14.80;;;4.60;;
773;SDS011;370;48.810;9.150;2024-01-30T09:19:23;9.30;;;4.45;;
773;SDS011;370;48.810;9.150;2024-01-30T09:21:49;8.25;;;3.70;;
773;SDS011;370;48.810;9.150;2024-01-30T09:24:16;7.45;;;4.05;;
773;SDS011;370;48.810;9.150;2024-01-30T09:26:44;14.77;;;3.70;;
773;SDS011;370;48.810;9.150;2024-01-30T09:29:11;7.90;;;4.57;;
773;SDS011;370;48.810;9.150;2024-01-30T09:31:37;9.20;;;4.53;;
773;SDS011;370;48.810;9.150;2024-01-30T09:34:04;8.83;;;4.20;;
773;SDS011;370;48.810;9.150;2024-01-30T09:36:31;10.33;;;4.43;;
773;SDS011;370;48.810;9.150;2024-01-30T09:38:58;14.00;;;4.47;;
773;SDS011;370;48.810;9.150;2024-01-30T09:41:25;20.37;;;5.00;;
773;SDS011;370;48.810;9.150;2024-01-30T09:43:56;12.80;;;4.90;;
773;SDS011;370;48.810;9.150;2024-01-30T09:46:23;10.60;;;4.80;;
773;SDS011;370;48.810;9.150;2024-01-30T09:48:53;11.37;;;5.07;;
773;SDS011;370;48.810;9.150;2024-01-30T09:51:21;7.83;;;4.27;;
773;SDS011;370;48.810;9.150;2024-01-30T09:53:48;15.30;;;4.73;;
773;SDS011;370;48.810;9.150;2024-01-30T09:56:15;7.30;;;5.33;;
773;SDS011;370;48.810;9.150;2024-01-30T09:58:42;11.20;;;4.33;;
773;SDS011;370;48.810;9.150;2024-01-30T10:01:10;13.27;;;5.37;;
773;SDS011;370;48.810;9.150;2024-01-30T10:03:38;8.07;;;4.50;;
773;SDS011;370;48.810;9.150;2024-01-30T10:06:05;10.47;;;5.00;;
773;SDS011;370;48.810;9.150;2024-01-30T10:08:33;8.00;;;4.80;;
773;SDS011;370;48.810;9.150;2024-01-30T10:11:00;9.10;;;4.67;;
773;SDS011;370;48.810;9.150;2024-01-30T10:13:28;8.27;;;3.97;;
773;SDS011;370;48.810;9.150;2024-01-30T10:15:55;10.67;;;5.10;;
773;SDS011;370;48.810;9.150;2024-01-30T10:18:24;9.70;;;4.40;;
773;SDS011;370;48.810;9.150;2024-01-30T10:20:51;12.80;;;5.27;;
773;SDS011;370;48.810;9.150;2024-01-30T10:23:18;7.57;;;3.87;;
773;SDS011;370;48.810;9.150;2024-01-30T10:25:45;13.33;;;4.77;;
773;SDS011;370;48.810;9.150;2024-01-30T10:28:11;8.90;;;4.90;;
773;SDS011;370;48.810;9.150;2024-01-30T10:30:38;8.67;;;4.33;;
773;SDS011;370;48.810;9.150;2024-01-30T10:33:05;10.67;;;3.90;;
773;SDS011;370;48.810;9.150;2024-01-30T10:35:33;11.70;;;3.80;;
773;SDS011;370;48.810;9.150;2024-01-30T10:38:00;7.33;;;4.37;;
773;SDS011;370;48.810;9.150;2024-01-30T10:40:27;14.67;;;4.70;;
773;SDS011;370;48.810;9.150;2024-01-30T10:42:55;13.77;;;4.53;;
773;SDS011;370;48.810;9.150;2024-01-30T10:45:22;21.37;;;5.13;;
773;SDS011;370;48.810;9.150;2024-01-30T10:47:49;13.60;;;5.50;;
773;SDS011;370;48.810;9.150;2024-01-30T10:50:16;9.57;;;4.30;;
773;SDS011;370;48.810;9.150;2024-01-30T10:52:45;7.37;;;3.63;;
773;SDS011;370;48.810;9.150;2024-01-30T10:55:13;8.13;;;3.40;;
773;SDS011;370;48.810;9.150;2024-01-30T10:57:41;10.20;;;5.00;;
773;SDS011;370;48.810;9.150;2024-01-30T11:00:09;5.90;;;3.80;;
773;SDS011;370;48.810;9.150;2024-01-30T11:02:38;16.90;;;4.77;;
773;SDS011;370;48.810;9.150;2024-01-30T11:05:07;7.30;;;4.40;;
773;SDS011;370;48.810;9.150;2024-01-30T11:07:34;10.03;;;4.57;;
773;SDS011;370;48.810;9.150;2024-01-30T11:10:03;12.70;;;4.13;;
773;SDS011;370;48.810;9.150;2024-01-30T11:12:37;9.53;;;4.90;;
773;SDS011;370;48.810;9.150;2024-01-30T11:15:06;11.50;;;5.10;;
773;SDS011;370;48.810;9.150;2024-01-30T11:17:43;10.00;;;4.83;;
773;SDS011;370;48.810;9.150;2024-01-30T11:20:11;18.47;;;5.57;;
773;SDS011;370;48.810;9.150;2024-01-30T11:22:41;11.80;;;5.70;;
773;SDS011;370;48.810;9.150;2024-01-30T11:25:14;10.10;;;5.00;;
773;SDS011;370;48.810;9.150;2024-01-30T11:27:42;9.73;;;4.87;;
773;SDS011;370;48.810;9.150;2024-01-30T11:30:09;10.83;;;4.80;;
773;SDS011;370;48.810;9.150;2024-01-30T11:32:36;9.20;;;4.30;;
773;SDS011;370;48.810;9.150;2024-01-30T11:35:04;12.03;;;5.27;;
773;SDS011;370;48.810;9.150;2024-01-30T11:37:33;9.07;;;4.67;;
773;SDS011;370;48.810;9.150;2024-01-30T11:40:04;6.97;;;3.93;;
773;SDS011;370;48.810;9.150;2024-01-30T11:42:32;12.43;;;4.37;;
773;SDS011;370;48.810;9.150;2024-01-30T11:45:04;10.93;;;4.10;;
773;SDS011;370;48.810;9.150;2024-01-30T11:47:34;6.67;;;4.07;;
773;SDS011;370;48.810;9.150;2024-01-30T11:50:01;8.50;;;4.30;;
773;SDS011;370;48.810;9.150;2024-01-30T11:52:28;12.03;;;4.40;;
773;SDS011;370;48.810;9.150;2024-01-30T11:54:55;6.57;;;4.20;;
773;SDS011;370;48.810;9.150;2024-01-30T11:57:22;11.90;;;4.30;;
773;SDS011;370;48.810;9.150;2024-01-30T11:59:50;8.30;;;4.03;;
773;SDS011;370;48.810;9.150;2024-01-30T12:02:17;9.07;;;4.87;;
773;SDS011;370;48.810;9.150;2024-01-30T12:04:43;11.07;;;4.37;;
773;SDS011;370;48.810;9.150;2024-01-30T12:07:10;14.00;;;5.17;;
773;SDS011;370;48.810;9.150;2024-01-30T12:09:37;10.80;;;5.17;;
773;SDS011;370;48.810;9.150;2024-01-30T12:12:04;7.30;;;4.53;;
773;SDS011;370;48.810;9.150;2024-01-30T12:14:37;7.67;;;4.53;;
773;SDS011;370;48.810;9.150;2024-01-30T12:17:05;8.00;;;4.00;;
773;SDS011;370;48.810;9.150;2024-01-30T12:19:34;11.60;;;5.33;;
773;SDS011;370;48.810;9.150;2024-01-30T12:22:01;9.70;;;4.33;;
773;SDS011;370;48.810;9.150;2024-01-30T12:24:28;19.80;;;5.00;;
773;SDS011;370;48.810;9.150;2024-01-30T12:26:56;14.87;;;4.90;;
773;SDS011;370;48.810;9.150;2024-01-30T12:29:23;7.00;;;4.40;;
773;SDS011;370;48.810;9.150;2024-01-30T12:31:52;13.17;;;4.67;;
773;SDS011;370;48.810;9.150;2024-01-30T12:34:21;9.20;;;4.40;;
773;SDS011;370;48.810;9.150;2024-01-30T12:36:48;9.47;;;5.20;;
773;SDS011;370;48.810;9.150;2024-01-30T12:39:15;15.70;;;5.80;;
773;SDS011;370;48.810;9.150;2024-01-30T12:41:41;9.83;;;5.20;;
773;SDS011;370;48.810;9.150;2024-01-30T12:44:08;9.07;;;4.40;;
773;SDS011;370;48.810;9.150;2024-01-30T12:46:35;10.30;;;4.67;;
773;SDS011;370;48.810;9.150;2024-01-30T12:49:02;9.93;;;4.83;;
773;SDS011;370;48.810;9.150;2024-01-30T12:51:30;12.83;;;4.73;;
773;SDS011;370;48.810;9.150;2024-01-30T12:54:03;14.03;;;4.30;;
773;SDS011;370;48.810;9.150;2024-01-30T12:56:31;13.13;;;4.73;;
773;SDS011;370;48.810;9.150;2024-01-30T12:58:58;9.00;;;4.70;;
773;SDS011;370;48.810;9.150;2024-01-30T13:01:25;11.80;;;4.50;;
773;SDS011;370;48.810;9.150;2024-01-30T13:03:52;13.97;;;5.37;;
773;SDS011;370;48.810;9.150;2024-01-30T13:06:19;11.33;;;5.10;;
773;SDS011;370;48.810;9.150;2024-01-30T13:08:47;14.23;;;5.43;;
773;SDS011;370;48.810;9.150;2024-01-30T13:11:14;21.10;;;4.50;;
773;SDS011;370;48.810;9.150;2024-01-30T13:13:40;7.47;;;4.93;;
773;SDS011;370;48.810;9.150;2024-01-30T13:16:07;9.27;;;4.77;;
773;SDS011;370;48.810;9.150;2024-01-30T13:18:34;11.20;;;4.80;;
773;SDS011;370;48.810;9.150;2024-01-30T13:21:01;8.93;;;4.53;;
773;SDS011;370;48.810;9.150;2024-01-30T13:23:28;14.37;;;5.10;;
773;SDS011;370;48.810;9.150;2024-01-30T13:25:56;22.70;;;5.43;;
773;SDS011;370;48.810;9.150;2024-01-30T13:28:23;12.77;;;5.40;;
773;SDS011;370;48.810;9.150;2024-01-30T13:30:51;6.70;;;4.23;;
773;SDS011;370;48.810;9.150;2024-01-30T13:33:17;9.67;;;5.47;;
773;SDS011;370;48.810;9.150;2024-01-30T13:35:44;11.13;;;5.03;;
773;SDS011;370;48.810;9.150;2024-01-30T13:38:11;11.23;;;4.90;;
773;SDS011;370;48.810;9.150;2024-01-30T13:40:39;12.00;;;4.77;;
773;SDS011;370;48.810;9.150;2024-01-30T13:43:07;23.20;;;5.70;;
773;SDS011;370;48.810;9.150;2024-01-30T13:45:33;15.63;;;5.90;;
773;SDS011;370;48.810;9.150;2024-01-30T13:48:00;15.83;;;6.13;;
773;SDS011;370;48.810;9.150;2024-01-30T13:50:28;9.77;;;4.40;;
773;SDS011;370;48.810;9.150;2024-01-30T13:52:55;17.80;;;5.47;;
773;SDS011;370;48.810;9.150;2024-01-30T13:55:21;8.93;;;4.37;;
773;SDS011;370;48.810;9.150;2024-01-30T13:57:48;8.65;;;4.85;;
773;SDS011;370;48.810;9.150;2024-01-30T14:00:16;16.07;;;5.60;;
773;SDS011;370;48.810;9.150;2024-01-30T14:02:43;8.93;;;4.50;;
773;SDS011;370;48.810;9.150;2024-01-30T14:05:10;11.27;;;5.70;;
773;SDS011;370;48.810;9.150;2024-01-30T14:07:37;14.67;;;5.43;;
773;SDS011;370;48.810;9.150;2024-01-30T14:10:05;18.67;;;5.37;;
773;SDS011;370;48.810;9.150;2024-01-30T14:12:32;7.97;;;4.47;;
773;SDS011;370;48.810;9.150;2024-01-30T14:14:59;22.13;;;4.83;;
773;SDS011;370;48.810;9.150;2024-01-30T14:17:27;27.83;;;5.33;;
773;SDS011;370;48.810;9.150;2024-01-30T14:19:54;12.80;;;5.30;;
773;SDS011;370;48.810;9.150;2024-01-30T14:22:21;25.83;;;6.27;;
773;SDS011;370;48.810;9.150;2024-01-30T14:24:48;11.85;;;5.03;;
773;SDS011;370;48.810;9.150;2024-01-30T14:27:15;10.20;;;4.33;;
773;SDS011;370;48.810;9.150;2024-01-30T14:29:41;6.30;;;4.20;;
773;SDS011;370;48.810;9.150;2024-01-30T14:32:08;6.97;;;3.60;;
773;SDS011;370;48.810;9.150;2024-01-30T14:34:36;9.70;;;4.73;;
773;SDS011;370;48.810;9.150;2024-01-30T14:37:04;10.77;;;4.60;;
773;SDS011;370;48.810;9.150;2024-01-30T14:39:31;8.95;;;4.55;;
773;SDS011;370;48.810;9.150;2024-01-30T14:41:58;10.17;;;4.63;;
773;SDS011;370;48.810;9.150;2024-01-30T14:44:25;17.77;;;6.45;;
773;SDS011;370;48.810;9.150;2024-01-30T14:46:52;22.50;;;5.10;;
773;SDS011;370;48.810;9.150;2024-01-30T14:49:20;11.97;;;4.50;;
773;SDS011;370;48.810;9.150;2024-01-30T14:51:48;11.70;;;4.20;;
773;SDS011;370;48.810;9.150;2024-01-30T14:54:14;12.60;;;4.72;;
773;SDS011;370;48.810;9.150;2024-01-30T14:56:41;13.00;;;3.40;;
773;SDS011;370;48.810;9.150;2024-01-30T14:59:08;11.18;;;3.60;;
773;SDS011;370;48.810;9.150;2024-01-30T15:01:35;9.43;;;3.95;;
773;SDS011;370;48.810;9.150;2024-01-30T15:04:02;11.27;;;4.10;;
773;SDS011;370;48.810;9.150;2024-01-30T15:06:28;9.43;;;4.45;;
773;SDS011;370;48.810;9.150;2024-01-30T15:08:57;10.55;;;4.30;;
773;SDS011;370;48.810;9.150;2024-01-30T15:11:24;6.70;;;3.75;;
773;SDS011;370;48.810;9.150;2024-01-30T15:13:50;12.68;;;4.15;;
773;SDS011;370;48.810;9.150;2024-01-30T15:16:17;10.02;;;4.00;;
773;SDS011;370;48.810;9.150;2024-01-30T15:18:44;8.23;;;3.65;;
773;SDS011;370;48.810;9.150;2024-01-30T15:21:11;14.88;;;4.10;;
773;SDS011;370;48.810;9.150;2024-01-30T15:23:37;8.98;;;4.28;;
773;SDS011;370;48.810;9.150;2024-01-30T15:26:05;6.85;;;3.60;;
773;SDS011;370;48.810;9.150;2024-01-30T15:28:36;8.70;;;3.60;;
773;SDS011;370;48.810;9.150;2024-01-30T15:31:03;14.15;;;4.43;;
773;SDS011;370;48.810;9.150;2024-01-30T15:33:31;8.25;;;3.20;;
773;SDS011;370;48.810;9.150;2024-01-30T15:35:59;16.70;;;5.03;;
773;SDS011;370;48.810;9.150;2024-01-30T15:38:26;11.80;;;4.30;;
773;SDS011;370;48.810;9.150;2024-01-30T15:40:53;9.27;;;4.60;;
773;SDS011;370;48.810;9.150;2024-01-30T15:43:22;7.35;;;3.25;;
773;SDS011;370;48.810;9.150;2024-01-30T15:45:49;8.98;;;4.20;;
773;SDS011;370;48.810;9.150;2024-01-30T15:48:16;11.30;;;3.95;;
773;SDS011;370;48.810;9.150;2024-01-30T15:50:43;11.52;;;5.28;;
773;SDS011;370;48.810;9.150;2024-01-30T15:56:32;10.55;;;4.20;;
773;SDS011;370;48.810;9.150;2024-01-30T15:59:00;14.93;;;4.63;;
773;SDS011;370;48.810;9.150;2024-01-30T16:01:27;11.75;;;5.20;;
773;SDS011;370;48.810;9.150;2024-01-30T16:03:54;11.35;;;4.68;;
773;SDS011;370;48.810;9.150;2024-01-30T16:06:21;8.38;;;3.80;;
773;SDS011;370;48.810;9.150;2024-01-30T16:08:48;12.52;;;4.20;;
773;SDS011;370;48.810;9.150;2024-01-30T16:11:16;18.33;;;6.10;;
773;SDS011;370;48.810;9.150;2024-01-30T16:13:42;16.23;;;5.57;;
773;SDS011;370;48.810;9.150;2024-01-30T16:16:10;12.27;;;4.68;;
773;SDS011;370;48.810;9.150;2024-01-30T16:18:37;14.90;;;4.85;;
773;SDS011;370;48.810;9.150;2024-01-30T16:21:04;11.73;;;4.18;;
773;SDS011;370;48.810;9.150;2024-01-30T16:23:31;13.23;;;3.72;;
773;SDS011;370;48.810;9.150;2024-01-30T16:25:58;7.18;;;3.60;;
773;SDS011;370;48.810;9.150;2024-01-30T16:28:24;6.05;;;3.65;;